首页
METAR-TAF:

METAR-TAF

机场 :

摩爾曼斯克, 俄罗斯

纬度: 68-58N, 经度: 033-03E, 海拔: 51米

当前天气观测

该预报发布于30分钟前的20:30 UTC
风速12节,风向西转西北
温度 -5°C
湿度 73%
气压 1000 hPa
能见度10公里或以上
多云层高于2400英尺
低吹雪

METAR: ULMM 282030Z 29006MPS 9999 DRSN BKN024 M05/M09 Q1000 R31/390054 NOSIG RMK QFE743

时间: 00:00 (21:00 UTC)

预报

该预报发布于1小时和10分钟前的19:50 UTC
预报有效从28日的 21点(UTC)到 29日的 21点(UTC)
风速12节,风向西转西北,有时为25节阵风
能见度10公里或以上
多云层高于1500英尺
低吹雪
短暂存在
从 28日的 21点(UTC)到 29日的 01点(UTC)
风速19节,风向西北,有时为33节阵风
能見度: 3100
多云层高于1500英尺, 积雨云.
小阵雪, 高吹雪
短暂存在
从 29日的 01点(UTC)到 29日的 21点(UTC)
风速16节,风向西北,有时为27节阵风
能見度: 3100
多云层高于1100英尺, 积雨云.
小阵雪, 高吹雪

TAF: ULMM 281950Z 2821/2921 29006G13MPS 9999 DRSN BKN015 TEMPO 2821/2901 31010G17MPS 3100 -SHSN BLSN BKN015CB TEMPO 2901/2921 31008G14MPS 3100 -SHSN BLSN BKN011CB

超过4000个机场的气象观测和天气预报(METAR&TAF报告)。

可查询的气象台以黄色和红色小点在地图上表示。

将鼠标移到小点上方,可查看气象台名称。

然后点击查看天气观测和预报。

如需切换地图:点击带黑十字的绿色按钮放大地图;点击带横线的绿色按钮缩小地图;或者点击绿色箭头查看邻近地区的地图。


METAR-TAF: